^^
Station Historical Data
 
Daily Summary for September 19, 2017 Units:  English    Metric   Both
« Previous Day
Next Day »
Daily Weekly Monthly Yearly Custom
  Current: High: Low: Average:
Temperature: 58.4 °F 86.1 °F 47.3 °F 63 °F
Dew Point: 33.5 °F 46.5 °F 26.3 °F 38.2 °F
Humidity: 39% 80% 12% 48%
Wind Speed: 21.9mph 26.5mph 0.0mph 4.8mph
Wind Gust: 21.9mph 26.5mph - -
WindNorth - - South
Pressure: 29.48 in 29.48 in 29.23 in -
Precipitation: 0.00 in      
Historical Graphs
 
 
Tabular Data for September 19, 2017
Time Temperature Dew Point Pressure Wind Wind Speed Wind Gust Humidity Rainfall Rate (Hourly) solar Conditions
00:01 55.7 °F 37.8 °F 29.47 in SSW 1.2 mph 1.2 mph 51% 0.00 in WeatherDisplay:10.37 W/m2 CLR
00:06 56.0 °F 37.6 °F 29.46 in SSW 1.2 mph 1.2 mph 50% 0.00 in WeatherDisplay:10.37 W/m2 CLR
00:11 56.3 °F 37.4 °F 29.46 in SW 2.3 mph 2.3 mph 49% 0.00 in WeatherDisplay:10.37 W/m2 CLR
00:16 56.3 °F 37.4 °F 29.46 in SW 2.3 mph 2.3 mph 49% 0.00 in WeatherDisplay:10.37 W/m2 CLR
00:21 56.3 °F 36.8 °F 29.46 in Calm     48% 0.00 in WeatherDisplay:10.37 W/m2 CLR
00:26 56.5 °F 37.6 °F 29.45 in SW 4.6 mph 4.6 mph 49% 0.00 in WeatherDisplay:10.37 W/m2 CLR
00:31 56.8 °F 38.3 °F 29.45 in SSW 4.0 mph 4.0 mph 50% 0.00 in WeatherDisplay:10.37 W/m2 CLR
00:36 56.7 °F 38.3 °F 29.45 in SW 5.8 mph 5.8 mph 50% 0.00 in WeatherDisplay:10.37 W/m2 CLR
00:41 56.6 °F 38.7 °F 29.45 in SW 1.2 mph 1.2 mph 51% 0.00 in WeatherDisplay:10.37 W/m2 CLR
00:46 56.3 °F 37.9 °F 29.45 in SW 2.3 mph 2.3 mph 50% 0.00 in WeatherDisplay:10.37 W/m2 CLR
00:51 55.8 °F 37.9 °F 29.45 in SW 1.2 mph   51% 0.00 in WeatherDisplay:10.37 W/m2 CLR
00:56 55.3 °F 38.4 °F 29.46 in Calm     53% 0.00 in WeatherDisplay:10.37 W/m2 CLR
01:01 55.1 °F 39.2 °F 29.46 in WNW 2.3 mph 2.3 mph 55% 0.00 in WeatherDisplay:10.37 W/m2 CLR
01:06 55.0 °F 39.1 °F 29.45 in Calm     55% 0.00 in WeatherDisplay:10.37 W/m2 CLR
01:11 54.7 °F 38.4 °F 29.45 in Calm     54% 0.00 in WeatherDisplay:10.37 W/m2 CLR
01:16 54.4 °F 39.0 °F 29.45 in Calm     56% 0.00 in WeatherDisplay:10.37 W/m2 CLR
01:21 54.2 °F 39.3 °F 29.45 in Calm     57% 0.00 in WeatherDisplay:10.37 W/m2 CLR
01:26 53.9 °F 39.5 °F 29.45 in Calm     58% 0.00 in WeatherDisplay:10.37 W/m2 CLR
01:31 53.7 °F 39.3 °F 29.45 in Calm     58% 0.00 in WeatherDisplay:10.37 W/m2 CLR
01:36 53.4 °F 39.4 °F 29.45 in Calm     59% 0.00 in WeatherDisplay:10.37 W/m2 CLR
01:41 53.2 °F 38.4 °F 29.44 in Calm     57% 0.00 in WeatherDisplay:10.37 W/m2 CLR
01:46 53.1 °F 39.1 °F 29.45 in Calm     59% 0.00 in WeatherDisplay:10.37 W/m2 CLR
01:51 53.0 °F 39.5 °F 29.44 in WNW 1.2 mph   60% 0.00 in WeatherDisplay:10.37 W/m2 CLR
01:56 52.9 °F 39.0 °F 29.44 in Calm     59% 0.00 in WeatherDisplay:10.37 W/m2 CLR
02:01 52.7 °F 39.6 °F 29.44 in Calm     61% 0.00 in WeatherDisplay:10.37 W/m2 CLR
02:06 52.5 °F 39.8 °F 29.43 in Calm     62% 0.00 in WeatherDisplay:10.37 W/m2 CLR
02:11 52.3 °F 40.1 °F 29.43 in Calm     63% 0.00 in WeatherDisplay:10.37 W/m2 CLR
02:16 52.1 °F 40.7 °F 29.42 in Calm     65% 0.00 in WeatherDisplay:10.37 W/m2 CLR
02:21 52.0 °F 40.2 °F 29.42 in Calm     64% 0.00 in WeatherDisplay:10.37 W/m2 CLR
02:26 51.9 °F 40.5 °F 29.42 in WNW 1.2 mph 1.2 mph 65% 0.00 in WeatherDisplay:10.37 W/m2 CLR
02:31 51.8 °F 40.4 °F 29.42 in Calm     65% 0.00 in WeatherDisplay:10.37 W/m2 CLR
02:36 51.7 °F 40.7 °F 29.41 in Calm     66% 0.00 in WeatherDisplay:10.37 W/m2 CLR
02:41 51.2 °F 39.0 °F 29.43 in WNW 1.2 mph 1.2 mph 63% 0.00 in WeatherDisplay:10.37 W/m2 CLR
02:46 50.3 °F 39.4 °F 29.43 in Calm     66% 0.00 in WeatherDisplay:10.37 W/m2 CLR
02:51 49.7 °F 39.2 °F 29.42 in Calm     67% 0.00 in WeatherDisplay:10.37 W/m2 CLR
02:56 49.3 °F 39.6 °F 29.44 in Calm     69% 0.00 in WeatherDisplay:10.37 W/m2 CLR
03:01 49.0 °F 39.6 °F 29.44 in Calm     70% 0.00 in WeatherDisplay:10.37 W/m2 CLR
03:06 48.7 °F 39.7 °F 29.42 in Calm     71% 0.00 in WeatherDisplay:10.37 W/m2 CLR
03:11 48.5 °F 39.9 °F 29.42 in WNW 1.2 mph   72% 0.00 in WeatherDisplay:10.37 W/m2 CLR
03:16 48.4 °F 40.8 °F 29.43 in Calm     75% 0.00 in WeatherDisplay:10.37 W/m2 CLR
03:21 48.4 °F 40.8 °F 29.43 in Calm     75% 0.00 in WeatherDisplay:10.37 W/m2 CLR
03:26 48.4 °F 40.5 °F 29.43 in Calm     74% 0.00 in WeatherDisplay:10.37 W/m2 CLR
03:31 48.4 °F 40.8 °F 29.43 in Calm     75% 0.00 in WeatherDisplay:10.37 W/m2 CLR
03:36 48.5 °F 41.3 °F 29.42 in Calm     76% 0.00 in WeatherDisplay:10.37 W/m2 CLR
03:41 48.5 °F 41.3 °F 29.41 in Calm     76% 0.00 in WeatherDisplay:10.37 W/m2 CLR
03:46 48.6 °F 41.0 °F 29.41 in Calm     75% 0.00 in WeatherDisplay:10.37 W/m2 CLR
03:51 48.7 °F 40.8 °F 29.41 in Calm     74% 0.00 in WeatherDisplay:10.37 W/m2 CLR
03:56 48.7 °F 41.1 °F 29.41 in Calm     75% 0.00 in WeatherDisplay:10.37 W/m2 CLR
04:01 48.6 °F 41.0 °F 29.41 in Calm     75% 0.00 in WeatherDisplay:10.37 W/m2 CLR
04:06 48.5 °F 40.9 °F 29.42 in Calm     75% 0.00 in WeatherDisplay:10.37 W/m2 CLR
04:11 48.3 °F 40.7 °F 29.42 in Calm     75% 0.00 in WeatherDisplay:10.37 W/m2 CLR
04:16 48.2 °F 40.6 °F 29.42 in Calm     75% 0.00 in WeatherDisplay:10.37 W/m2 CLR
04:21 48.2 °F 40.3 °F 29.42 in Calm     74% 0.00 in WeatherDisplay:10.37 W/m2 CLR
04:26 48.3 °F 40.4 °F 29.42 in Calm     74% 0.00 in WeatherDisplay:10.37 W/m2 CLR
04:31 48.2 °F 40.3 °F 29.42 in Calm     74% 0.00 in WeatherDisplay:10.37 W/m2 CLR
04:36 48.2 °F 40.3 °F 29.42 in Calm     74% 0.00 in WeatherDisplay:10.37 W/m2 CLR
04:41 48.1 °F 40.2 °F 29.42 in Calm     74% 0.00 in WeatherDisplay:10.37 W/m2 CLR
04:46 48.0 °F 40.1 °F 29.42 in Calm     74% 0.00 in WeatherDisplay:10.37 W/m2 CLR
04:51 47.9 °F 40.0 °F 29.42 in Calm     74% 0.00 in WeatherDisplay:10.37 W/m2 CLR
04:56 47.9 °F 40.7 °F 29.42 in Calm     76% 0.00 in WeatherDisplay:10.37 W/m2 CLR
05:01 47.8 °F 40.9 °F 29.43 in Calm     77% 0.00 in WeatherDisplay:10.37 W/m2 CLR
05:06 47.9 °F 41.0 °F 29.43 in WNW 1.2 mph   77% 0.00 in WeatherDisplay:10.37 W/m2 CLR
05:11 47.9 °F 41.4 °F 29.44 in Calm     78% 0.00 in WeatherDisplay:10.37 W/m2 CLR
05:16 48.2 °F 41.7 °F 29.44 in NW 1.2 mph 1.2 mph 78% 0.00 in WeatherDisplay:10.37 W/m2 CLR
05:22 48.4 °F 41.9 °F 29.43 in Calm     78% 0.00 in WeatherDisplay:10.37 W/m2 CLR
05:26 48.5 °F 41.6 °F 29.42 in Calm     77% 0.00 in WeatherDisplay:10.37 W/m2 CLR
05:32 48.6 °F 41.7 °F 29.42 in Calm     77% 0.00 in WeatherDisplay:10.37 W/m2 CLR
05:37 48.5 °F 41.3 °F 29.42 in NW 1.2 mph 1.2 mph 76% 0.00 in WeatherDisplay:10.37 W/m2 CLR
05:42 48.2 °F 41.0 °F 29.43 in Calm     76% 0.00 in WeatherDisplay:10.37 W/m2 CLR
05:47 48.0 °F 41.1 °F 29.42 in Calm     77% 0.00 in WeatherDisplay:10.37 W/m2 CLR
05:52 47.9 °F 41.0 °F 29.42 in Calm     77% 0.00 in WeatherDisplay:10.37 W/m2 CLR
05:57 47.7 °F 40.8 °F 29.42 in Calm     77% 0.00 in WeatherDisplay:10.37 W/m2 CLR
06:02 47.6 °F 41.1 °F 29.44 in Calm     78% 0.00 in WeatherDisplay:10.37 W/m2 CLR
06:07 47.5 °F 41.0 °F 29.44 in Calm     78% 0.00 in WeatherDisplay:10.37 W/m2 CLR
06:12 47.4 °F 40.9 °F 29.45 in Calm     78% 0.00 in WeatherDisplay:10.37 W/m2 CLR
06:17 47.3 °F 41.1 °F 29.45 in Calm     79% 0.00 in WeatherDisplay:10.37 W/m2 CLR
06:18 47.3 °F 41.1 °F 29.45 in Calm     79% 0.00 in WeatherDisplay:10.37 W/m2 CLR
06:23 47.3 °F 41.1 °F 29.45 in Calm     79% 0.00 in WeatherDisplay:10.37 W/m2 CLR
06:28 47.3 °F 41.1 °F 29.45 in West 1.2 mph   79% 0.00 in WeatherDisplay:10.37 W/m2 CLR
06:33 47.4 °F 41.2 °F 29.45 in Calm     79% 0.00 in WeatherDisplay:10.37 W/m2 CLR
06:38 47.5 °F 41.6 °F 29.46 in Calm     80% 0.00 in WeatherDisplay:10.37 W/m2 CLR
06:43 47.6 °F 41.7 °F 29.44 in Calm     80% 0.00 in WeatherDisplay:10.37 W/m2 CLR
06:48 47.7 °F 41.8 °F 29.44 in West 1.2 mph 1.2 mph 80% 0.00 in WeatherDisplay:10.37 W/m2 CLR
06:53 47.7 °F 41.8 °F 29.44 in Calm     80% 0.00 in WeatherDisplay:10.37 W/m2 CLR
06:58 47.8 °F 41.9 °F 29.44 in Calm     80% 0.00 in WeatherDisplay:10.37 W/m2 CLR
07:03 47.8 °F 41.6 °F 29.46 in Calm     79% 0.00 in WeatherDisplay:10.37 W/m2 CLR
07:08 47.7 °F 41.5 °F 29.46 in Calm     79% 0.00 in WeatherDisplay:10.37 W/m2 CLR
07:13 47.6 °F 41.7 °F 29.46 in Calm     80% 0.00 in WeatherDisplay:10.37 W/m2 CLR
07:18 47.7 °F 41.8 °F 29.46 in Calm     80% 0.00 in WeatherDisplay:10.37 W/m2 CLR
07:23 47.7 °F 41.5 °F 29.46 in West 1.2 mph 1.2 mph 79% 0.00 in WeatherDisplay:10.37 W/m2 CLR
07:28 47.7 °F 41.2 °F 29.46 in West 1.2 mph   78% 0.00 in WeatherDisplay:10.37 W/m2 CLR
07:33 47.7 °F 41.2 °F 29.46 in Calm     78% 0.00 in WeatherDisplay:10.37 W/m2 CLR
07:38 47.7 °F 41.5 °F 29.46 in Calm     79% 0.00 in WeatherDisplay:10.37 W/m2 CLR
07:43 47.9 °F 41.7 °F 29.45 in Calm     79% 0.00 in WeatherDisplay:10.37 W/m2 CLR
07:48 48.2 °F 41.7 °F 29.45 in Calm     78% 0.00 in WeatherDisplay:10.37 W/m2 CLR
07:53 48.4 °F 41.9 °F 29.45 in Calm     78% 0.00 in WeatherDisplay:10.37 W/m2 CLR
07:58 48.7 °F 42.1 °F 29.44 in Calm     78% 0.00 in WeatherDisplay:10.37 W/m2 CLR
08:03 48.9 °F 42.0 °F 29.46 in West 1.2 mph   77% 0.00 in WeatherDisplay:10.37 W/m2 CLR
08:08 49.2 °F 42.0 °F 29.46 in SSW 3.5 mph   76% 0.00 in WeatherDisplay:10.37 W/m2 CLR
08:13 49.4 °F 41.8 °F 29.46 in Calm     75% 0.00 in WeatherDisplay:10.37 W/m2 CLR
08:18 49.5 °F 41.9 °F 29.46 in SW 1.2 mph   75% 0.00 in WeatherDisplay:10.37 W/m2 CLR
08:23 49.7 °F 42.4 °F 29.47 in Calm     76% 0.00 in WeatherDisplay:10.37 W/m2 CLR
08:28 50.0 °F 42.7 °F 29.46 in SW 1.2 mph   76% 0.00 in WeatherDisplay:10.37 W/m2 CLR
08:33 50.5 °F 42.9 °F 29.46 in Calm     75% 0.00 in WeatherDisplay:10.37 W/m2 CLR
08:38 50.7 °F 43.1 °F 29.45 in Calm     75% 0.00 in WeatherDisplay:10.37 W/m2 CLR
08:43 51.1 °F 43.1 °F 29.46 in Calm     74% 0.00 in WeatherDisplay:10.37 W/m2 CLR
08:48 51.3 °F 42.9 °F 29.46 in Calm     73% 0.00 in WeatherDisplay:10.37 W/m2 CLR
08:53 51.5 °F 43.8 °F 29.46 in Calm     75% 0.00 in WeatherDisplay:10.37 W/m2 CLR
08:58 51.8 °F 44.1 °F 29.45 in Calm     75% 0.00 in WeatherDisplay:10.37 W/m2 CLR
09:03 52.1 °F 43.7 °F 29.47 in Calm     73% 0.00 in WeatherDisplay:10.37 W/m2 CLR
09:08 52.5 °F 44.4 °F 29.46 in Calm     74% 0.00 in WeatherDisplay:10.37 W/m2 CLR
09:13 52.9 °F 44.1 °F 29.46 in SSE 3.5 mph   72% 0.00 in WeatherDisplay:10.37 W/m2 CLR
09:18 53.3 °F 44.5 °F 29.46 in Calm     72% 0.00 in WeatherDisplay:10.37 W/m2 CLR
09:23 53.8 °F 45.0 °F 29.46 in Calm     72% 0.00 in WeatherDisplay:10.37 W/m2 CLR
09:28 54.4 °F 44.4 °F 29.45 in SSE 1.2 mph 1.2 mph 69% 0.00 in WeatherDisplay:10.37 W/m2 CLR
09:33 54.9 °F 44.9 °F 29.45 in Calm     69% 0.00 in WeatherDisplay:10.37 W/m2 CLR
09:38 55.6 °F 45.2 °F 29.44 in SSE 1.2 mph 1.2 mph 68% 0.00 in WeatherDisplay:10.37 W/m2 CLR
09:44 56.3 °F 44.3 °F 29.44 in Calm     64% 0.00 in WeatherDisplay:10.37 W/m2 CLR
09:49 56.8 °F 43.9 °F 29.43 in SSE 3.5 mph 3.5 mph 62% 0.00 in WeatherDisplay:10.37 W/m2 CLR
09:54 57.2 °F 43.9 °F 29.43 in Calm     61% 0.00 in WeatherDisplay:10.37 W/m2 CLR
09:59 57.6 °F 43.8 °F 29.43 in NNE 3.5 mph 3.5 mph 60% 0.00 in WeatherDisplay:10.37 W/m2 CLR
10:04 57.9 °F 45.4 °F 29.43 in North 1.2 mph   63% 0.00 in WeatherDisplay:10.37 W/m2 CLR
10:09 58.4 °F 45.8 °F 29.44 in Calm     63% 0.00 in WeatherDisplay:10.37 W/m2 CLR
10:14 59.0 °F 44.7 °F 29.44 in ENE 2.3 mph 2.3 mph 59% 0.00 in WeatherDisplay:10.37 W/m2 CLR
10:19 59.5 °F 43.8 °F 29.44 in ENE 2.3 mph 2.3 mph 56% 0.00 in WeatherDisplay:10.37 W/m2 CLR
10:24 60.4 °F 45.1 °F 29.42 in SSE 4.6 mph 4.6 mph 57% 0.00 in WeatherDisplay:10.37 W/m2 CLR
10:29 61.1 °F 46.2 °F 29.42 in North 3.5 mph 3.5 mph 58% 0.00 in WeatherDisplay:10.37 W/m2 CLR
10:34 61.8 °F 45.9 °F 29.41 in North 1.2 mph 1.2 mph 56% 0.00 in WeatherDisplay:10.37 W/m2 CLR
10:39 62.5 °F 45.1 °F 29.40 in East 2.3 mph 2.3 mph 53% 0.00 in WeatherDisplay:10.37 W/m2 CLR
10:44 63.8 °F 44.8 °F 29.39 in East 4.0 mph 4.0 mph 50% 0.00 in WeatherDisplay:10.37 W/m2 CLR
10:49 65.3 °F 43.4 °F 29.39 in ESE 3.5 mph 3.5 mph 45% 0.00 in WeatherDisplay:10.37 W/m2 CLR
10:54 66.4 °F 45.0 °F 29.36 in ESE 1.2 mph   46% 0.00 in WeatherDisplay:10.37 W/m2 CLR
10:59 67.4 °F 45.3 °F 29.38 in ESE 2.3 mph 2.3 mph 45% 0.00 in WeatherDisplay:10.37 W/m2 CLR
11:04 68.1 °F 46.5 °F 29.37 in ESE 1.2 mph 1.2 mph 46% 0.00 in WeatherDisplay:10.37 W/m2 CLR
11:09 69.0 °F 44.9 °F 29.36 in East 3.5 mph 3.5 mph 42% 0.00 in WeatherDisplay:10.37 W/m2 CLR
11:14 69.8 °F 43.0 °F 29.36 in South 4.0 mph 4.0 mph 38% 0.00 in WeatherDisplay:10.37 W/m2 CLR
11:19 71.3 °F 45.1 °F 29.36 in North 4.6 mph 4.6 mph 39% 0.00 in WeatherDisplay:10.37 W/m2 CLR
11:24 72.1 °F 38.1 °F 29.35 in SE 5.8 mph 5.8 mph 29% 0.00 in WeatherDisplay:10.37 W/m2 CLR
11:29 73.1 °F 40.7 °F 29.34 in South 1.2 mph 1.2 mph 31% 0.00 in WeatherDisplay:10.37 W/m2 CLR
11:34 74.0 °F 42.3 °F 29.33 in SW 3.5 mph 3.5 mph 32% 0.00 in WeatherDisplay:10.37 W/m2 CLR
11:39 74.8 °F 39.5 °F 29.32 in SSE 4.0 mph 4.0 mph 28% 0.00 in WeatherDisplay:10.37 W/m2 CLR
11:44 75.3 °F 38.0 °F 29.32 in South 7.0 mph 7.0 mph 26% 0.00 in WeatherDisplay:10.37 W/m2 CLR
11:49 76.1 °F 37.7 °F 29.31 in South 6.9 mph 6.9 mph 25% 0.00 in WeatherDisplay:10.37 W/m2 CLR
11:54 77.0 °F 40.4 °F 29.31 in SSW 4.6 mph 4.6 mph 27% 0.00 in WeatherDisplay:10.37 W/m2 CLR
11:59 77.6 °F 33.3 °F 29.31 in ESE 5.0 mph 5.0 mph 20% 0.00 in WeatherDisplay:10.37 W/m2 CLR
12:04 78.3 °F 32.6 °F 29.31 in South 3.5 mph 3.5 mph 19% 0.00 in WeatherDisplay:10.37 W/m2 CLR
12:09 79.1 °F 33.3 °F 29.30 in South 4.6 mph 4.6 mph 19% 0.00 in WeatherDisplay:10.37 W/m2 CLR
12:14 79.8 °F 31.1 °F 29.29 in South 3.0 mph 3.0 mph 17% 0.00 in WeatherDisplay:10.37 W/m2 CLR
12:19 80.3 °F 30.0 °F 29.29 in SSW 9.2 mph 9.2 mph 16% 0.00 in WeatherDisplay:10.37 W/m2 CLR
12:24 80.6 °F 33.2 °F 29.27 in SSW 3.5 mph 3.5 mph 18% 0.00 in WeatherDisplay:10.37 W/m2 CLR
12:29 80.9 °F 33.4 °F 29.28 in SE 4.6 mph 4.6 mph 18% 0.00 in WeatherDisplay:10.37 W/m2 CLR
12:34 81.0 °F 30.6 °F 29.28 in SSE 3.5 mph 3.5 mph 16% 0.00 in WeatherDisplay:10.37 W/m2 CLR
12:39 81.3 °F 33.7 °F 29.27 in WSW 3.5 mph 3.5 mph 18% 0.00 in WeatherDisplay:10.37 W/m2 CLR
12:44 81.5 °F 29.4 °F 29.28 in SSE 4.6 mph 4.6 mph 15% 0.00 in WeatherDisplay:10.37 W/m2 CLR
12:49 82.0 °F 26.3 °F 29.27 in SE 8.1 mph 8.1 mph 13% 0.00 in WeatherDisplay:10.37 W/m2 CLR
12:54 82.3 °F 26.5 °F 29.27 in SE 3.5 mph 3.5 mph 13% 0.00 in WeatherDisplay:10.37 W/m2 CLR
12:59 82.5 °F 31.8 °F 29.26 in SW 3.5 mph 3.5 mph 16% 0.00 in WeatherDisplay:10.37 W/m2 CLR
13:04 82.7 °F 30.3 °F 29.26 in SSW 4.6 mph 4.6 mph 15% 0.00 in WeatherDisplay:10.37 W/m2 CLR
13:09 82.8 °F 32.0 °F 29.26 in South 3.5 mph 3.5 mph 16% 0.00 in WeatherDisplay:10.37 W/m2 CLR
13:14 82.8 °F 33.5 °F 29.26 in ENE 3.5 mph 3.5 mph 17% 0.00 in WeatherDisplay:10.37 W/m2 CLR
13:19 83.0 °F 33.7 °F 29.26 in SE 5.8 mph 5.8 mph 17% 0.00 in WeatherDisplay:10.37 W/m2 CLR
13:24 82.8 °F 34.9 °F 29.25 in SE 5.8 mph 5.8 mph 18% 0.00 in WeatherDisplay:10.37 W/m2 CLR
13:29 82.5 °F 34.7 °F 29.25 in ESE 6.9 mph 6.9 mph 18% 0.00 in WeatherDisplay:10.37 W/m2 CLR
13:34 82.5 °F 37.4 °F 29.24 in West 4.0 mph 4.0 mph 20% 0.00 in WeatherDisplay:10.37 W/m2 CLR
13:39 82.5 °F 33.3 °F 29.24 in NNW 10.4 mph 10.4 mph 17% 0.00 in WeatherDisplay:10.37 W/m2 CLR
13:44 82.8 °F 30.4 °F 29.24 in ESE 5.8 mph 5.8 mph 15% 0.00 in WeatherDisplay:10.37 W/m2 CLR
13:49 83.2 °F 35.3 °F 29.24 in SW 4.6 mph 4.6 mph 18% 0.00 in WeatherDisplay:10.37 W/m2 CLR
13:54 83.6 °F 31.0 °F 29.24 in East 2.3 mph 2.3 mph 15% 0.00 in WeatherDisplay:10.37 W/m2 CLR
13:59 84.0 °F 31.4 °F 29.24 in South 4.6 mph 4.6 mph 15% 0.00 in WeatherDisplay:10.37 W/m2 CLR
14:04 84.4 °F 31.7 °F 29.25 in SSE 3.5 mph 3.5 mph 15% 0.00 in WeatherDisplay:10.37 W/m2 CLR
14:05 84.5 °F 31.8 °F 29.25 in SSE 3.5 mph 3.5 mph 15% 0.00 in WeatherDisplay:10.37 W/m2 CLR
14:10 84.8 °F 35.1 °F 29.24 in SSW 3.5 mph 3.5 mph 17% 0.00 in WeatherDisplay:10.37 W/m2 CLR
14:15 85.1 °F 32.2 °F 29.24 in SSW 8.0 mph 8.0 mph 15% 0.00 in WeatherDisplay:10.37 W/m2 CLR
14:20 85.3 °F 34.0 °F 29.24 in SW 3.5 mph 3.5 mph 16% 0.00 in WeatherDisplay:10.37 W/m2 CLR
14:25 85.6 °F 34.2 °F 29.24 in SSW 3.5 mph 3.5 mph 16% 0.00 in WeatherDisplay:10.37 W/m2 CLR
14:30 85.9 °F 31.2 °F 29.24 in South 6.9 mph 6.9 mph 14% 0.00 in WeatherDisplay:10.37 W/m2 CLR
14:35 86.1 °F 27.5 °F 29.24 in SSE 11.5 mph 11.5 mph 12% 0.00 in WeatherDisplay:10.37 W/m2 CLR
14:40 85.8 °F 29.3 °F 29.24 in SE 12.0 mph 12.0 mph 13% 0.00 in WeatherDisplay:10.37 W/m2 CLR
14:45 84.8 °F 28.5 °F 29.24 in ESE 13.8 mph 13.8 mph 13% 0.00 in WeatherDisplay:10.37 W/m2 CLR
14:50 84.9 °F 32.1 °F 29.25 in WSW 4.6 mph 4.6 mph 15% 0.00 in WeatherDisplay:10.37 W/m2 CLR
14:55 85.2 °F 30.6 °F 29.24 in South 3.5 mph 3.5 mph 14% 0.00 in WeatherDisplay:10.37 W/m2 CLR
15:00 85.4 °F 28.9 °F 29.25 in SSE 6.0 mph 6.0 mph 13% 0.00 in WeatherDisplay:10.37 W/m2 CLR
15:05 85.7 °F 32.7 °F 29.25 in SSW 3.5 mph 3.5 mph 15% 0.00 in WeatherDisplay:10.37 W/m2 CLR
15:10 85.9 °F 31.2 °F 29.25 in South 10.4 mph 10.4 mph 14% 0.00 in WeatherDisplay:10.37 W/m2 CLR
15:15 85.9 °F 32.9 °F 29.25 in SSW 6.9 mph 6.9 mph 15% 0.00 in WeatherDisplay:10.37 W/m2 CLR
15:20 85.7 °F 32.7 °F 29.24 in NNW 13.8 mph 13.8 mph 15% 0.00 in WeatherDisplay:10.37 W/m2 CLR
15:25 85.9 °F 31.2 °F 29.25 in South 17.3 mph 17.3 mph 14% 0.00 in WeatherDisplay:10.37 W/m2 CLR
15:30 85.4 °F 32.5 °F 29.24 in WNW 17.3 mph 17.3 mph 15% 0.00 in WeatherDisplay:10.37 W/m2 CLR
15:35 85.4 °F 34.1 °F 29.24 in SSE 12.7 mph 12.7 mph 16% 0.00 in WeatherDisplay:10.37 W/m2 CLR
15:40 85.2 °F 30.6 °F 29.24 in SW 5.8 mph 5.8 mph 14% 0.00 in WeatherDisplay:10.37 W/m2 CLR
15:45 85.2 °F 32.3 °F 29.23 in West 15.0 mph 15.0 mph 15% 0.00 in WeatherDisplay:10.37 W/m2 CLR
15:50 85.4 °F 34.1 °F 29.23 in West 10.4 mph 10.4 mph 16% 0.00 in WeatherDisplay:10.37 W/m2 CLR
15:55 85.5 °F 34.2 °F 29.24 in NW 11.5 mph 11.5 mph 16% 0.00 in WeatherDisplay:10.37 W/m2 CLR
16:00 85.7 °F 34.3 °F 29.24 in SE 9.2 mph 9.2 mph 16% 0.00 in WeatherDisplay:10.37 W/m2 CLR
16:05 85.7 °F 32.7 °F 29.24 in West 17.3 mph 17.3 mph 15% 0.00 in WeatherDisplay:10.37 W/m2 CLR
16:06 85.7 °F 32.7 °F 29.24 in West 11.5 mph 11.5 mph 15% 0.00 in WeatherDisplay:10.37 W/m2 CLR
16:11 85.5 °F 30.8 °F 29.25 in WSW 12.7 mph 12.7 mph 14% 0.00 in WeatherDisplay:10.37 W/m2 CLR
16:16 85.2 °F 32.3 °F 29.25 in West 11.5 mph 11.5 mph 15% 0.00 in WeatherDisplay:10.37 W/m2 CLR
16:21 84.8 °F 32.0 °F 29.25 in North 5.8 mph 5.8 mph 15% 0.00 in WeatherDisplay:10.37 W/m2 CLR
16:26 84.3 °F 31.6 °F 29.26 in WSW 6.9 mph 6.9 mph 15% 0.00 in WeatherDisplay:10.37 W/m2 CLR
16:31 84.1 °F 33.0 °F 29.26 in South 4.0 mph 4.0 mph 16% 0.00 in WeatherDisplay:10.37 W/m2 CLR
16:36 84.3 °F 31.6 °F 29.26 in West 6.9 mph 6.9 mph 15% 0.00 in WeatherDisplay:10.37 W/m2 CLR
16:41 84.3 °F 31.6 °F 29.26 in NNE 5.8 mph 5.8 mph 15% 0.00 in WeatherDisplay:10.37 W/m2 CLR
16:46 84.3 °F 31.6 °F 29.27 in NNW 4.6 mph 4.6 mph 15% 0.00 in WeatherDisplay:10.37 W/m2 CLR
16:51 84.2 °F 34.6 °F 29.28 in SE 2.3 mph 2.3 mph 17% 0.00 in WeatherDisplay:10.37 W/m2 CLR
16:56 84.1 °F 31.4 °F 29.28 in WNW 1.2 mph 1.2 mph 15% 0.00 in WeatherDisplay:10.37 W/m2 CLR
17:01 81.9 °F 40.5 °F 29.30 in East 10.0 mph 10.0 mph 23% 0.00 in WeatherDisplay:10.37 W/m2 CLR
17:06 77.7 °F 40.1 °F 29.33 in NNE 6.9 mph 6.9 mph 26% 0.00 in WeatherDisplay:10.37 W/m2 CLR
17:11 74.6 °F 40.2 °F 29.35 in ENE 11.5 mph 11.5 mph 29% 0.00 in WeatherDisplay:10.37 W/m2 CLR
17:16 72.8 °F 39.5 °F 29.37 in ENE 10.0 mph 10.0 mph 30% 0.00 in WeatherDisplay:10.37 W/m2 CLR
17:21 71.8 °F 39.5 °F 29.37 in SE 11.5 mph 11.5 mph 31% 0.00 in WeatherDisplay:10.37 W/m2 CLR
17:26 71.5 °F 39.3 °F 29.38 in NNE 3.5 mph 3.5 mph 31% 0.00 in WeatherDisplay:10.37 W/m2 CLR
17:31 71.6 °F 38.5 °F 29.38 in NE 16.1 mph 16.1 mph 30% 0.00 in WeatherDisplay:10.37 W/m2 CLR
17:36 71.4 °F 39.2 °F 29.39 in North 11.0 mph 11.0 mph 31% 0.00 in WeatherDisplay:10.37 W/m2 CLR
17:41 70.8 °F 37.8 °F 29.40 in NNW 20.7 mph 20.7 mph 30% 0.00 in WeatherDisplay:10.37 W/m2 CLR
17:46 69.9 °F 37.0 °F 29.39 in NNW 16.0 mph 16.0 mph 30% 0.00 in WeatherDisplay:10.37 W/m2 CLR
17:51 69.4 °F 37.4 °F 29.40 in NNE 15.0 mph 15.0 mph 31% 0.00 in WeatherDisplay:10.37 W/m2 CLR
17:56 69.0 °F 37.1 °F 29.41 in NNE 17.0 mph 17.0 mph 31% 0.00 in WeatherDisplay:10.37 W/m2 CLR
18:01 68.6 °F 37.5 °F 29.42 in NNE 13.8 mph 13.8 mph 32% 0.00 in WeatherDisplay:10.37 W/m2 CLR
18:06 68.2 °F 37.2 °F 29.42 in NNE 18.0 mph 18.0 mph 32% 0.00 in WeatherDisplay:10.37 W/m2 CLR
18:11 67.9 °F 36.9 °F 29.42 in North 13.8 mph 13.8 mph 32% 0.00 in WeatherDisplay:10.37 W/m2 CLR
18:16 67.4 °F 36.5 °F 29.44 in NNE 13.8 mph 13.8 mph 32% 0.00 in WeatherDisplay:10.37 W/m2 CLR
18:21 66.8 °F 36.0 °F 29.43 in NNE 13.8 mph 13.8 mph 32% 0.00 in WeatherDisplay:10.37 W/m2 CLR
18:26 65.9 °F 35.2 °F 29.44 in North 21.9 mph 21.9 mph 32% 0.00 in WeatherDisplay:10.37 W/m2 CLR
18:31 64.9 °F 34.3 °F 29.45 in North 21.9 mph 21.9 mph 32% 0.00 in WeatherDisplay:10.37 W/m2 CLR
18:36 64.4 °F 35.4 °F 29.44 in NW 23.0 mph 23.0 mph 34% 0.00 in WeatherDisplay:10.37 W/m2 CLR
18:41 63.8 °F 34.9 °F 29.44 in North 20.0 mph 20.0 mph 34% 0.00 in WeatherDisplay:10.37 W/m2 CLR
18:46 63.3 °F 34.4 °F 29.45 in North 17.3 mph 17.3 mph 34% 0.00 in WeatherDisplay:10.37 W/m2 CLR
18:51 62.8 °F 34.7 °F 29.46 in North 16.1 mph 16.1 mph 35% 0.00 in WeatherDisplay:10.37 W/m2 CLR
18:56 62.1 °F 34.1 °F 29.46 in North 24.2 mph 24.2 mph 35% 0.00 in WeatherDisplay:10.37 W/m2 CLR
19:01 61.5 °F 33.6 °F 29.46 in ENE 19.6 mph 19.6 mph 35% 0.00 in WeatherDisplay:10.37 W/m2 CLR
19:06 61.0 °F 33.8 °F 29.46 in North 26.5 mph 26.5 mph 36% 0.00 in WeatherDisplay:10.37 W/m2 CLR
19:11 60.6 °F 33.5 °F 29.46 in NNE 19.6 mph 19.6 mph 36% 0.00 in WeatherDisplay:10.37 W/m2 CLR
19:16 60.2 °F 33.1 °F 29.47 in NNW 17.3 mph 17.3 mph 36% 0.00 in WeatherDisplay:10.37 W/m2
19:21 59.9 °F 32.9 °F 29.48 in NNE 26.0 mph 26.0 mph 36% 0.00 in WeatherDisplay:10.37 W/m2
19:26 59.6 °F 33.3 °F 29.47 in WNW 21.9 mph 21.9 mph 37% 0.00 in WeatherDisplay:10.37 W/m2 CLR
19:31 59.4 °F 33.1 °F 29.48 in North 19.6 mph 19.6 mph 37% 0.00 in WeatherDisplay:10.37 W/m2 CLR
19:36 59.0 °F 33.4 °F 29.48 in NNE 15.0 mph 15.0 mph 38% 0.00 in WeatherDisplay:10.37 W/m2 CLR
19:41 59.0 °F 33.4 °F 29.48 in NNW 19.6 mph 19.6 mph 38% 0.00 in WeatherDisplay:10.37 W/m2 CLR
19:46 58.8 °F 32.6 °F 29.48 in NNE 18.4 mph 18.4 mph 37% 0.00 in WeatherDisplay:10.37 W/m2 CLR
19:51 58.4 °F 33.5 °F 29.48 in North 21.9 mph 21.9 mph 39% 0.00 in WeatherDisplay:10.37 W/m2 CLR
Windsor Co Weather
Compliments of Weather Underground - 2.75 mb